createdAt,value
2023-04-03T00:00:04.402Z,11.66
2023-04-03T00:02:33.083Z,11.63
2023-04-03T00:05:01.757Z,11.60
2023-04-03T00:07:30.239Z,11.60
2023-04-03T00:09:58.342Z,11.56
2023-04-03T00:12:27.122Z,11.54
2023-04-03T00:14:58.480Z,11.53
2023-04-03T00:17:28.634Z,11.49
2023-04-03T00:19:57.169Z,11.47
2023-04-03T00:22:28.415Z,11.44
2023-04-03T00:24:59.157Z,11.41
2023-04-03T00:27:27.613Z,11.36
2023-04-03T00:29:57.832Z,11.28
2023-04-03T00:32:30.800Z,11.26
2023-04-03T00:34:59.911Z,11.23
2023-04-03T00:37:29.147Z,11.18
2023-04-03T00:40:00.294Z,11.15
2023-04-03T00:42:29.154Z,11.11
2023-04-03T00:45:35.054Z,11.08
2023-04-03T00:48:06.946Z,11.01
2023-04-03T00:50:39.497Z,11.02
2023-04-03T00:53:12.650Z,11.00
2023-04-03T00:55:41.721Z,10.98
2023-04-03T00:58:10.759Z,10.98
2023-04-03T01:00:43.492Z,10.91
2023-04-03T01:03:12.030Z,10.90
2023-04-03T01:05:40.387Z,10.89
2023-04-03T01:08:08.895Z,10.85
2023-04-03T01:10:37.495Z,10.84
2023-04-03T01:13:21.707Z,10.82
2023-04-03T01:15:52.231Z,10.81
2023-04-03T01:18:20.884Z,10.81
2023-04-03T01:21:16.349Z,10.78
2023-04-03T01:24:14.947Z,10.78
2023-04-03T01:26:43.797Z,10.76
2023-04-03T01:29:12.583Z,10.74
2023-04-03T01:32:28.506Z,10.70
2023-04-03T01:38:01.580Z,10.65
2023-04-03T01:40:47.265Z,10.62
2023-04-03T01:43:33.469Z,10.63
2023-04-03T01:46:10.427Z,10.62
2023-04-03T01:51:36.440Z,10.56
2023-04-03T01:54:12.383Z,10.55
2023-04-03T01:56:44.533Z,10.53
2023-04-03T01:59:18.510Z,10.50
2023-04-03T02:02:21.436Z,10.48
2023-04-03T02:05:25.716Z,10.46
2023-04-03T02:10:44.712Z,10.39
2023-04-03T02:13:14.599Z,10.37
2023-04-03T02:15:46.607Z,10.32
2023-04-03T02:18:16.440Z,10.33
2023-04-03T02:20:58.121Z,10.29
2023-04-03T02:23:29.407Z,10.26
2023-04-03T02:26:07.369Z,10.23
2023-04-03T02:28:41.786Z,10.24
2023-04-03T02:31:12.930Z,10.23
2023-04-03T02:33:47.532Z,10.22
2023-04-03T03:00:26.117Z,10.06
2023-04-03T03:10:32.656Z,9.96
2023-04-03T03:16:23.329Z,9.93
2023-04-03T03:22:09.940Z,9.87
2023-04-03T03:38:21.848Z,9.82
2023-04-03T03:40:54.398Z,9.80
2023-04-03T03:43:43.955Z,9.78
2023-04-03T03:46:24.254Z,9.77
2023-04-03T03:48:53.489Z,9.75
2023-04-03T03:51:23.168Z,9.73
2023-04-03T03:53:55.730Z,9.71
2023-04-03T03:56:28.169Z,9.69
2023-04-03T03:58:58.898Z,9.68
2023-04-03T04:01:27.484Z,9.67
2023-04-03T04:04:02.572Z,9.65
2023-04-03T04:06:31.764Z,9.63
2023-04-03T04:09:06.360Z,9.66
2023-04-03T04:11:34.824Z,9.65
2023-04-03T04:14:06.788Z,9.66
2023-04-03T04:16:36.733Z,9.69
2023-04-03T04:19:06.768Z,9.67
2023-04-03T04:21:36.943Z,9.68
2023-04-03T04:24:14.768Z,9.68
2023-04-03T04:26:47.133Z,9.70
2023-04-03T04:29:19.717Z,9.68
2023-04-03T04:31:48.400Z,9.65
2023-04-03T04:34:17.997Z,9.64
2023-04-03T04:36:48.093Z,9.60
2023-04-03T04:39:20.054Z,9.61
2023-04-03T04:42:04.951Z,9.59
2023-04-03T04:48:10.617Z,9.53
2023-04-03T04:53:49.373Z,9.51
2023-04-03T04:56:22.484Z,9.53
2023-04-03T04:58:52.825Z,9.53
2023-04-03T05:01:44.233Z,9.54
2023-04-03T05:07:03.826Z,9.54
2023-04-03T05:15:43.452Z,9.58
2023-04-03T05:24:22.861Z,9.63
2023-04-03T05:32:30.239Z,9.71
2023-04-03T05:35:03.617Z,9.73
2023-04-03T05:38:00.835Z,9.79
2023-04-03T05:43:40.435Z,9.94
2023-04-03T05:46:16.907Z,10.01
2023-04-03T05:48:46.209Z,10.09
2023-04-03T05:51:17.903Z,10.15
2023-04-03T05:53:55.482Z,10.18
2023-04-03T05:56:25.964Z,10.22
2023-04-03T05:58:53.974Z,10.26
2023-04-03T06:01:27.895Z,10.26
2023-04-03T06:03:59.750Z,10.27
2023-04-03T06:06:28.366Z,10.29
2023-04-03T06:08:58.016Z,10.30
2023-04-03T06:11:26.559Z,10.37
2023-04-03T06:13:55.897Z,10.40
2023-04-03T06:16:24.716Z,10.45
2023-04-03T06:18:53.154Z,10.49
2023-04-03T06:21:22.227Z,10.54
2023-04-03T06:23:51.384Z,10.57
2023-04-03T06:26:22.875Z,10.61
2023-04-03T06:28:51.568Z,10.63
2023-04-03T06:31:21.325Z,10.65
2023-04-03T06:36:38.812Z,10.69
2023-04-03T06:39:08.379Z,10.69
2023-04-03T06:41:38.740Z,10.67
2023-04-03T06:44:07.701Z,10.69
2023-04-03T06:46:36.603Z,10.66
2023-04-03T06:49:10.076Z,10.68
2023-04-03T06:51:43.418Z,10.68
2023-04-03T06:54:16.972Z,10.71
2023-04-03T06:56:49.312Z,10.72
2023-04-03T06:59:19.360Z,10.72
2023-04-03T07:01:48.998Z,10.77
2023-04-03T07:04:19.749Z,10.79
2023-04-03T07:06:50.542Z,10.82
2023-04-03T07:09:20.747Z,10.87
2023-04-03T07:11:52.419Z,10.92
2023-04-03T07:14:22.689Z,10.95
2023-04-03T07:17:02.279Z,11.01
2023-04-03T07:19:32.151Z,11.05
2023-04-03T07:22:07.586Z,11.06
2023-04-03T07:24:38.419Z,11.12
2023-04-03T07:27:30.614Z,11.15
2023-04-03T07:30:13.993Z,11.16
2023-04-03T07:35:34.399Z,11.24
2023-04-03T07:38:04.981Z,11.27
2023-04-03T07:40:38.881Z,11.32
2023-04-03T07:43:11.732Z,11.34
2023-04-03T07:45:56.787Z,11.37
2023-04-03T07:48:29.030Z,11.37
2023-04-03T07:51:13.020Z,11.40
2023-04-03T07:53:50.149Z,11.41
2023-04-03T07:56:27.752Z,11.43
2023-04-03T07:59:46.928Z,11.47
2023-04-03T08:02:19.664Z,11.47
2023-04-03T08:13:22.135Z,11.58
2023-04-03T08:15:50.243Z,11.62
2023-04-03T08:18:22.831Z,11.67
2023-04-03T08:20:51.168Z,11.65
2023-04-03T08:23:21.418Z,11.63
2023-04-03T08:25:49.859Z,11.62
2023-04-03T08:28:18.053Z,11.59
2023-04-03T08:30:47.490Z,11.57
2023-04-03T08:33:16.273Z,11.57
2023-04-03T08:35:46.753Z,11.55
2023-04-03T08:38:16.006Z,11.58
2023-04-03T08:40:44.659Z,11.62
2023-04-03T08:43:34.033Z,11.74
2023-04-03T08:46:12.056Z,11.83
2023-04-03T08:48:44.969Z,11.94
2023-04-03T08:51:17.674Z,12.04
2023-04-03T08:53:52.312Z,12.16
2023-04-03T08:56:21.726Z,12.28
2023-04-03T08:58:53.982Z,12.40
2023-04-03T09:01:27.174Z,12.48
2023-04-03T09:03:57.688Z,12.57
2023-04-03T09:06:33.739Z,12.60
2023-04-03T09:09:13.976Z,12.65
2023-04-03T09:11:54.830Z,12.71
2023-04-03T09:14:29.016Z,12.74
2023-04-03T09:17:02.355Z,12.79
2023-04-03T09:19:40.313Z,12.81
2023-04-03T09:22:18.900Z,12.86
2023-04-03T09:24:49.629Z,12.91
2023-04-03T09:27:18.318Z,12.99
2023-04-03T09:29:47.879Z,12.99
2023-04-03T09:32:27.595Z,13.07
2023-04-03T09:34:58.206Z,13.11
2023-04-03T09:37:41.504Z,13.15
2023-04-03T09:40:32.246Z,13.19
2023-04-03T09:43:02.465Z,13.25
2023-04-03T09:45:33.011Z,13.33
2023-04-03T09:48:15.457Z,13.39
2023-04-03T09:51:00.014Z,13.46
2023-04-03T09:53:44.317Z,13.51
2023-04-03T09:56:22.999Z,13.56
2023-04-03T09:58:52.643Z,13.62
2023-04-03T10:01:29.108Z,13.68
2023-04-03T10:04:08.398Z,13.76
2023-04-03T10:06:39.389Z,13.81
2023-04-03T10:09:21.104Z,13.91
2023-04-03T10:12:05.814Z,13.98
2023-04-03T10:14:35.213Z,14.01
2023-04-03T10:17:15.658Z,14.07
2023-04-03T10:19:47.349Z,14.11
2023-04-03T10:22:23.057Z,14.23
2023-04-03T10:25:04.810Z,14.33
2023-04-03T10:27:44.477Z,14.38
2023-04-03T10:30:26.500Z,14.45
2023-04-03T10:33:07.019Z,14.51
2023-04-03T10:35:44.369Z,14.55
2023-04-03T10:38:22.848Z,14.64
2023-04-03T10:41:01.974Z,14.70
2023-04-03T10:43:38.850Z,14.78
2023-04-03T10:46:12.661Z,14.85
2023-04-03T10:48:55.478Z,14.91
2023-04-03T10:51:30.358Z,14.97
2023-04-03T10:54:08.348Z,15.04
2023-04-03T10:56:43.042Z,15.06
2023-04-03T10:59:38.312Z,15.11
2023-04-03T11:02:11.023Z,15.19
2023-04-03T11:04:45.408Z,15.26
2023-04-03T11:07:35.266Z,15.29
2023-04-03T11:10:28.954Z,15.40
2023-04-03T11:13:04.248Z,15.43
2023-04-03T11:15:35.150Z,15.45
2023-04-03T11:18:07.348Z,15.56
2023-04-03T11:20:39.542Z,15.60
2023-04-03T11:23:18.111Z,15.66
2023-04-03T11:25:55.445Z,15.76
2023-04-03T11:28:25.510Z,15.83
2023-04-03T11:31:05.316Z,15.90
2023-04-03T11:33:47.246Z,15.97
2023-04-03T11:36:32.001Z,16.00
2023-04-03T11:39:10.280Z,16.09
2023-04-03T11:41:39.399Z,16.15
2023-04-03T11:44:32.320Z,16.19
2023-04-03T11:47:24.671Z,16.32
2023-04-03T11:50:01.005Z,16.39
2023-04-03T11:53:12.825Z,16.48
2023-04-03T11:55:57.602Z,16.54
2023-04-03T11:58:28.136Z,16.63
2023-04-03T12:01:50.898Z,16.70
2023-04-03T12:05:16.278Z,16.78
2023-04-03T12:11:28.844Z,16.98
2023-04-03T12:14:15.949Z,17.10
2023-04-03T12:16:48.489Z,17.17
2023-04-03T12:22:16.509Z,17.25
2023-04-03T12:24:46.551Z,17.31
2023-04-03T12:27:45.027Z,17.32
2023-04-03T12:30:26.014Z,17.40
2023-04-03T12:33:16.806Z,17.45
2023-04-03T12:35:58.107Z,17.59
2023-04-03T12:38:45.576Z,17.64
2023-04-03T12:41:30.111Z,17.71
2023-04-03T12:44:14.693Z,17.80
2023-04-03T12:46:47.524Z,17.82
2023-04-03T12:49:33.484Z,17.84
2023-04-03T12:52:02.308Z,17.89
2023-04-03T12:54:35.001Z,17.91
2023-04-03T12:57:13.394Z,18.00
2023-04-03T12:59:42.435Z,18.04
2023-04-03T13:02:28.271Z,18.13
2023-04-03T13:05:00.827Z,18.35
2023-04-03T13:07:34.674Z,18.45
2023-04-03T13:10:18.188Z,18.64
2023-04-03T13:12:52.190Z,18.75
2023-04-03T13:15:23.864Z,18.87
2023-04-03T13:17:53.837Z,19.02
2023-04-03T13:20:27.475Z,19.16
2023-04-03T13:23:02.441Z,19.29
2023-04-03T13:25:34.188Z,19.50
2023-04-03T13:28:13.313Z,19.68
2023-04-03T13:30:44.024Z,19.81
2023-04-03T13:33:24.020Z,19.91
2023-04-03T13:36:02.690Z,20.00
2023-04-03T13:38:34.978Z,20.15
2023-04-03T13:41:07.275Z,20.32
2023-04-03T13:43:38.307Z,20.41
2023-04-03T13:46:25.494Z,20.46
2023-04-03T13:48:56.221Z,20.57
2023-04-03T13:51:28.354Z,20.64
2023-04-03T13:53:59.341Z,20.70
2023-04-03T13:56:34.093Z,20.64
2023-04-03T13:59:08.276Z,20.74
2023-04-03T14:01:43.538Z,20.76
2023-04-03T14:04:20.974Z,20.95
2023-04-03T14:06:51.227Z,21.15
2023-04-03T14:09:20.985Z,21.38
2023-04-03T14:11:51.881Z,21.58
2023-04-03T14:14:23.036Z,21.87
2023-04-03T14:16:55.516Z,22.23
2023-04-03T14:19:27.172Z,22.74
2023-04-03T14:21:58.010Z,23.42
2023-04-03T14:24:26.598Z,24.25
2023-04-03T14:26:57.593Z,25.04
2023-04-03T14:29:26.854Z,25.83
2023-04-03T14:32:07.402Z,26.61
2023-04-03T14:34:41.217Z,27.42
2023-04-03T14:37:14.987Z,27.75
2023-04-03T14:39:43.912Z,27.88
2023-04-03T14:42:32.981Z,27.82
2023-04-03T14:45:02.718Z,27.83
2023-04-03T14:47:47.113Z,27.99
2023-04-03T14:50:22.531Z,28.19
2023-04-03T14:55:51.421Z,28.66
2023-04-03T14:58:55.345Z,29.24
2023-04-03T15:01:25.308Z,29.75
2023-04-03T15:04:00.710Z,29.90
2023-04-03T15:06:30.394Z,30.12
2023-04-03T15:09:22.909Z,30.44
2023-04-03T15:14:59.900Z,30.87
2023-04-03T15:17:30.555Z,31.19
2023-04-03T15:20:02.269Z,31.34
2023-04-03T15:22:31.336Z,31.49
2023-04-03T15:25:05.228Z,31.48
2023-04-03T15:27:34.036Z,31.49
2023-04-03T15:30:06.103Z,31.59
2023-04-03T15:32:47.630Z,31.52
2023-04-03T15:35:16.634Z,31.41
2023-04-03T15:37:45.296Z,31.08
2023-04-03T15:40:21.879Z,30.84
2023-04-03T15:42:50.972Z,30.94
2023-04-03T15:45:22.282Z,31.16
2023-04-03T15:47:52.349Z,31.53
2023-04-03T15:50:20.926Z,31.71
2023-04-03T15:52:49.420Z,31.58
2023-04-03T15:55:24.406Z,31.27
2023-04-03T15:57:52.779Z,31.45
2023-04-03T16:00:22.665Z,31.63
2023-04-03T16:02:53.664Z,31.74
2023-04-03T16:05:44.197Z,31.87
2023-04-03T16:08:13.386Z,31.81
2023-04-03T16:10:50.266Z,31.07
2023-04-03T16:13:19.631Z,29.97
2023-04-03T16:15:50.068Z,28.89
2023-04-03T16:18:19.844Z,27.81
2023-04-03T16:20:50.788Z,26.80
2023-04-03T16:23:19.679Z,25.90
2023-04-03T16:25:51.657Z,25.15
2023-04-03T16:28:26.517Z,24.52
2023-04-03T16:33:47.092Z,24.21
2023-04-03T16:36:27.563Z,24.38
2023-04-03T16:42:05.088Z,25.03
2023-04-03T16:44:49.354Z,25.37
2023-04-03T16:47:30.998Z,25.39
2023-04-03T16:50:06.253Z,25.19
2023-04-03T16:55:52.410Z,24.83
2023-04-03T16:58:27.233Z,24.61
2023-04-03T17:00:56.696Z,24.77
2023-04-03T17:06:34.933Z,25.32
2023-04-03T17:09:18.294Z,25.12
2023-04-03T17:11:50.559Z,24.99
2023-04-03T17:14:25.050Z,24.90
2023-04-03T17:17:00.219Z,25.18
2023-04-03T17:22:12.226Z,25.69
2023-04-03T17:24:41.540Z,25.99
2023-04-03T17:34:23.205Z,27.44
2023-04-03T17:40:08.479Z,27.86
2023-04-03T17:43:31.200Z,27.85
2023-04-03T17:46:04.200Z,27.82
2023-04-03T17:48:46.617Z,27.86
2023-04-03T17:51:19.126Z,27.75
2023-04-03T17:53:47.474Z,27.66
2023-04-03T17:56:39.410Z,27.42
2023-04-03T17:59:10.495Z,26.88
2023-04-03T18:01:46.843Z,26.12
2023-04-03T18:04:18.209Z,25.34
2023-04-03T18:06:58.590Z,24.61
2023-04-03T18:09:30.772Z,24.06
2023-04-03T18:12:02.412Z,23.59
2023-04-03T18:14:32.269Z,23.11
2023-04-03T18:17:08.931Z,22.60
2023-04-03T18:19:42.758Z,22.15
2023-04-03T18:25:21.663Z,21.15
2023-04-03T18:34:41.713Z,19.40
2023-04-03T18:37:15.812Z,18.99
2023-04-03T18:39:49.204Z,18.61
2023-04-03T18:42:21.093Z,18.25
2023-04-03T18:44:53.956Z,17.96
2023-04-03T18:47:25.075Z,17.64
2023-04-03T18:49:58.123Z,17.37
2023-04-03T18:53:13.386Z,17.06
2023-04-03T18:55:50.470Z,16.76
2023-04-03T18:58:24.491Z,16.52
2023-04-03T19:00:52.978Z,16.32
2023-04-03T19:03:23.639Z,16.12
2023-04-03T19:05:52.544Z,15.96
2023-04-03T19:08:24.666Z,15.81
2023-04-03T19:10:56.293Z,15.64
2023-04-03T19:13:27.134Z,15.52
2023-04-03T19:15:59.307Z,15.37
2023-04-03T19:18:31.043Z,15.25
2023-04-03T19:21:06.016Z,15.14
2023-04-03T19:23:40.100Z,15.02
2023-04-03T19:26:26.291Z,14.89
2023-04-03T19:28:57.611Z,14.79
2023-04-03T19:31:26.525Z,14.72
2023-04-03T19:33:58.623Z,14.63
2023-04-03T19:36:28.337Z,14.54
2023-04-03T19:38:58.552Z,14.45
2023-04-03T19:41:35.322Z,14.38
2023-04-03T19:47:05.043Z,14.15
2023-04-03T19:49:50.842Z,13.98
2023-04-03T19:52:23.940Z,13.76
2023-04-03T19:55:08.825Z,13.56
2023-04-03T19:57:48.167Z,13.40
2023-04-03T20:00:21.229Z,13.33
2023-04-03T20:02:55.836Z,13.21
2023-04-03T20:05:28.525Z,13.20
2023-04-03T20:13:59.329Z,13.14
2023-04-03T20:16:37.072Z,13.10
2023-04-03T20:19:18.807Z,13.11
2023-04-03T20:21:51.348Z,13.07
2023-04-03T20:24:20.802Z,13.03
2023-04-03T20:26:51.225Z,13.00
2023-04-03T20:39:32.491Z,12.74
2023-04-03T20:42:05.869Z,12.70
2023-04-03T20:44:34.650Z,12.65
2023-04-03T20:47:05.246Z,12.60
2023-04-03T20:52:23.065Z,12.50
2023-04-03T20:57:54.418Z,12.36
2023-04-03T21:22:53.240Z,11.86
2023-04-03T21:25:22.800Z,11.78
2023-04-03T21:27:52.158Z,11.73
2023-04-03T21:39:27.444Z,11.53
2023-04-03T21:41:56.359Z,11.44
2023-04-03T21:44:25.330Z,11.42
2023-04-03T21:47:17.999Z,11.36
2023-04-03T21:53:02.972Z,11.26
2023-04-03T21:55:34.015Z,11.23
2023-04-03T21:58:04.133Z,11.20
2023-04-03T22:00:33.413Z,11.19
2023-04-03T22:03:15.072Z,11.14
2023-04-03T22:09:29.808Z,11.03
2023-04-03T22:12:40.961Z,10.97
2023-04-03T22:22:10.836Z,10.80
2023-04-03T22:24:52.671Z,10.80
2023-04-03T22:27:21.585Z,10.78
2023-04-03T22:29:50.212Z,10.73
2023-04-03T22:32:29.995Z,10.73
2023-04-03T22:35:04.378Z,10.69
2023-04-03T22:37:48.188Z,10.68
2023-04-03T22:40:17.347Z,10.65
2023-04-03T22:42:48.902Z,10.62
2023-04-03T22:45:17.871Z,10.62
2023-04-03T22:47:48.234Z,10.57
2023-04-03T22:50:23.859Z,10.54
2023-04-03T22:52:54.008Z,10.54
2023-04-03T22:55:22.703Z,10.51
2023-04-03T22:57:51.027Z,10.50
2023-04-03T23:00:20.752Z,10.50
2023-04-03T23:02:50.307Z,10.51
2023-04-03T23:05:24.334Z,10.50
2023-04-03T23:07:54.137Z,10.51
2023-04-03T23:10:23.873Z,10.54
2023-04-03T23:12:55.061Z,10.55
2023-04-03T23:15:23.964Z,10.56
2023-04-03T23:17:52.839Z,10.60
2023-04-03T23:20:22.893Z,10.60
2023-04-03T23:22:51.564Z,10.60
2023-04-03T23:25:20.879Z,10.62
2023-04-03T23:27:52.752Z,10.60
2023-04-03T23:30:21.960Z,10.60
2023-04-03T23:32:51.947Z,10.58
2023-04-03T23:35:23.093Z,10.59
2023-04-03T23:37:51.302Z,10.56
2023-04-03T23:40:19.887Z,10.54
2023-04-03T23:42:48.493Z,10.52
2023-04-03T23:45:17.653Z,10.53
2023-04-03T23:47:45.827Z,10.54
2023-04-03T23:50:13.980Z,10.50
2023-04-03T23:52:44.346Z,10.50
2023-04-03T23:55:12.747Z,10.48
2023-04-03T23:57:43.090Z,10.45
